Time,TemperatureF,DewpointF,PressureIn,WindDirection,WindDirectionDegrees,WindSpeedMPH,WindSpeedGustMPH,Humidity,HourlyPrecipIn,Conditions,Clouds,dailyrainin,SoftwareType,DateUTC
2013-04-23 00:00:00,66.2,50.0,29.87,SSE,150,6.0,6.0,56,0.00,,,0.00,weatherlink.com 1.10,2013-04-23 05:00:00,
2013-04-23 00:15:00,66.2,50.0,29.88,SSE,162,0.0,7.0,56,0.00,,,0.00,weatherlink.com 1.10,2013-04-23 05:15:00,
2013-04-23 00:30:00,65.9,50.0,29.87,SE,140,2.0,9.0,57,0.00,,,0.00,weatherlink.com 1.10,2013-04-23 05:30:00,
2013-04-23 00:45:00,64.3,51.0,29.86,SSE,167,0.0,10.0,62,0.00,,,0.00,weatherlink.com 1.10,2013-04-23 05:45:00,
2013-04-23 01:00:00,63.5,51.0,29.87,SSE,148,3.0,10.0,64,0.01,,,0.01,weatherlink.com 1.10,2013-04-23 06:00:00,
2013-04-23 01:15:00,62.6,51.0,29.85,SSE,150,3.0,11.0,67,0.02,,,0.02,weatherlink.com 1.10,2013-04-23 06:15:00,
2013-04-23 01:30:00,62.9,51.0,29.82,SE,135,6.0,14.0,66,0.02,,,0.02,weatherlink.com 1.10,2013-04-23 06:30:00,
2013-04-23 01:45:00,63.1,51.0,29.82,SSE,162,6.0,13.0,64,0.02,,,0.02,weatherlink.com 1.10,2013-04-23 06:45:00,
2013-04-23 02:00:00,62.8,50.0,29.82,SSE,160,2.0,10.0,64,0.01,,,0.02,weatherlink.com 1.10,2013-04-23 07:00:00,
2013-04-23 02:15:00,62.2,50.0,29.82,SSE,153,2.0,8.0,65,0.00,,,0.02,weatherlink.com 1.10,2013-04-23 07:15:00,
2013-04-23 02:30:00,62.2,50.0,29.80,SSE,163,5.0,13.0,65,0.00,,,0.02,weatherlink.com 1.10,2013-04-23 07:30:00,
2013-04-23 02:46:00,62.4,50.0,29.78,SE,137,0.0,11.0,65,0.00,,,0.02,weatherlink.com 1.10,2013-04-23 07:46:00,
2013-04-23 03:01:00,62.6,50.0,29.81,SSW,202,3.0,9.0,64,0.00,,,0.02,weatherlink.com 1.10,2013-04-23 08:01:00,
2013-04-23 03:16:00,61.7,51.0,29.80,SSW,204,1.0,10.0,67,0.00,,,0.02,weatherlink.com 1.10,2013-04-23 08:16:00,
2013-04-23 03:31:00,60.5,52.0,29.77,SSE,155,0.0,13.0,73,0.03,,,0.05,weatherlink.com 1.10,2013-04-23 08:31:00,
2013-04-23 03:46:00,60.0,52.0,29.78,SSE,163,2.0,7.0,74,0.04,,,0.06,weatherlink.com 1.10,2013-04-23 08:46:00,
2013-04-23 04:01:00,60.6,52.0,29.78,South,182,0.0,11.0,72,0.04,,,0.06,weatherlink.com 1.10,2013-04-23 09:01:00,
2013-04-23 04:16:00,60.7,52.0,29.78,SE,139,0.0,9.0,73,0.04,,,0.06,weatherlink.com 1.10,2013-04-23 09:16:00,
2013-04-23 04:31:00,60.3,52.0,29.81,NW,321,4.0,6.0,75,0.01,,,0.06,weatherlink.com 1.10,2013-04-23 09:31:00,
2013-04-23 04:46:00,59.4,53.0,29.80,SSW,204,0.0,12.0,79,0.00,,,0.06,weatherlink.com 1.10,2013-04-23 09:46:00,
2013-04-23 05:01:00,59.7,53.0,29.81,NW,314,0.0,9.0,78,0.00,,,0.06,weatherlink.com 1.10,2013-04-23 10:01:00,
2013-04-23 05:16:00,61.1,53.0,29.82,NW,321,6.0,6.0,74,0.00,,,0.06,weatherlink.com 1.10,2013-04-23 10:16:00,
2013-04-23 05:31:00,58.7,53.0,29.84,NNW,336,4.0,13.0,82,0.00,,,0.06,weatherlink.com 1.10,2013-04-23 10:31:00,
2013-04-23 05:46:00,54.1,50.0,29.85,North,355,10.0,19.0,85,0.00,,,0.06,weatherlink.com 1.10,2013-04-23 10:46:00,
2013-04-23 06:01:00,50.7,47.0,29.85,NNE,15,5.0,17.0,88,0.00,,,0.06,weatherlink.com 1.10,2013-04-23 11:01:00,
2013-04-23 06:16:00,49.3,47.0,29.86,North,351,9.0,17.0,90,0.00,,,0.06,weatherlink.com 1.10,2013-04-23 11:16:00,
2013-04-23 06:31:00,47.5,45.0,29.86,NNW,336,13.0,19.0,90,0.00,,,0.06,weatherlink.com 1.10,2013-04-23 11:31:00,
2013-04-23 06:46:00,46.5,44.0,29.87,North,9,10.0,15.0,91,0.00,,,0.06,weatherlink.com 1.10,2013-04-23 11:46:00,
2013-04-23 07:01:00,46.1,44.0,29.88,North,355,10.0,17.0,91,0.00,,,0.06,weatherlink.com 1.10,2013-04-23 12:01:00,
2013-04-23 07:16:00,46.0,44.0,29.88,NNW,342,6.0,14.0,91,0.00,,,0.06,weatherlink.com 1.10,2013-04-23 12:16:00,
2013-04-23 07:31:00,45.9,44.0,29.89,North,355,7.0,13.0,91,0.00,,,0.06,weatherlink.com 1.10,2013-04-23 12:31:00,
2013-04-23 07:46:00,45.8,43.0,29.90,NNW,348,8.0,13.0,91,0.00,,,0.06,weatherlink.com 1.10,2013-04-23 12:46:00,
2013-04-23 08:01:00,45.4,43.0,29.91,NNW,341,8.0,11.0,91,0.00,,,0.06,weatherlink.com 1.10,2013-04-23 13:01:00,
2013-04-23 08:16:00,44.4,42.0,29.92,North,350,12.0,16.0,92,0.00,,,0.06,weatherlink.com 1.10,2013-04-23 13:16:00,
2013-04-23 08:31:00,43.5,41.0,29.93,North,9,7.0,15.0,92,0.00,,,0.06,weatherlink.com 1.10,2013-04-23 13:31:00,
2013-04-23 08:46:00,43.0,41.0,29.93,NNW,345,8.0,17.0,92,0.00,,,0.06,weatherlink.com 1.10,2013-04-23 13:46:00,
2013-04-23 09:01:00,42.6,41.0,29.93,North,360,14.0,16.0,92,0.00,,,0.06,weatherlink.com 1.10,2013-04-23 14:01:00,
2013-04-23 09:17:00,42.4,41.0,29.94,NNW,331,8.0,15.0,93,0.00,,,0.06,weatherlink.com 1.10,2013-04-23 14:17:00,
2013-04-23 09:32:00,42.2,40.0,29.95,North,360,10.0,16.0,93,0.00,,,0.06,weatherlink.com 1.10,2013-04-23 14:32:00,
2013-04-23 09:47:00,41.3,40.0,29.95,NNW,342,16.0,19.0,93,0.00,,,0.06,weatherlink.com 1.10,2013-04-23 14:47:00,
2013-04-23 10:02:00,40.7,39.0,29.96,NW,326,11.0,19.0,93,0.00,,,0.06,weatherlink.com 1.10,2013-04-23 15:02:00,
2013-04-23 10:17:00,40.6,39.0,29.96,NW,326,17.0,17.0,93,0.00,,,0.06,weatherlink.com 1.10,2013-04-23 15:17:00,
2013-04-23 10:32:00,40.1,38.0,29.97,NNW,345,6.0,16.0,93,0.00,,,0.06,weatherlink.com 1.10,2013-04-23 15:32:00,
2013-04-23 10:47:00,40.0,38.0,29.98,NNW,343,4.0,16.0,93,0.00,,,0.06,weatherlink.com 1.10,2013-04-23 15:47:00,
2013-04-23 11:02:00,39.7,38.0,29.99,North,355,9.0,13.0,93,0.00,,,0.06,weatherlink.com 1.10,2013-04-23 16:02:00,
2013-04-23 11:17:00,39.6,38.0,30.00,North,360,12.0,17.0,93,0.00,,,0.06,weatherlink.com 1.10,2013-04-23 16:17:00,
2013-04-23 11:32:00,39.6,38.0,30.00,NNW,339,7.0,14.0,93,0.01,,,0.07,weatherlink.com 1.10,2013-04-23 16:32:00,
2013-04-23 11:47:00,39.4,38.0,30.00,NNW,337,8.0,20.0,93,0.01,,,0.07,weatherlink.com 1.10,2013-04-23 16:47:00,
2013-04-23 12:02:00,39.3,38.0,30.01,NNW,342,8.0,14.0,94,0.02,,,0.08,weatherlink.com 1.10,2013-04-23 17:02:00,
2013-04-23 12:17:00,38.7,37.0,30.01,NNW,330,8.0,16.0,94,0.02,,,0.08,weatherlink.com 1.10,2013-04-23 17:17:00,
2013-04-23 12:32:00,38.8,37.0,30.02,NNW,329,8.0,18.0,94,0.01,,,0.08,weatherlink.com 1.10,2013-04-23 17:32:00,
2013-04-23 12:47:00,39.4,38.0,30.01,NW,325,10.0,14.0,94,0.01,,,0.08,weatherlink.com 1.10,2013-04-23 17:47:00,
2013-04-23 13:02:00,39.0,38.0,30.01,NNW,327,11.0,15.0,94,0.00,,,0.08,weatherlink.com 1.10,2013-04-23 18:02:00,
2013-04-23 13:17:00,38.7,37.0,30.01,NNW,338,6.0,16.0,94,0.00,,,0.08,weatherlink.com 1.10,2013-04-23 18:17:00,
2013-04-23 13:32:00,39.2,38.0,30.01,NW,325,4.0,17.0,94,0.00,,,0.08,weatherlink.com 1.10,2013-04-23 18:32:00,
2013-04-23 13:47:00,39.0,37.0,30.01,NNW,333,9.0,17.0,93,0.00,,,0.08,weatherlink.com 1.10,2013-04-23 18:47:00,
2013-04-23 14:02:00,38.7,37.0,30.02,NNW,331,8.0,16.0,93,0.00,,,0.08,weatherlink.com 1.10,2013-04-23 19:02:00,
2013-04-23 14:17:00,38.5,37.0,30.02,NNW,344,15.0,15.0,93,0.00,,,0.08,weatherlink.com 1.10,2013-04-23 19:17:00,
2013-04-23 14:32:00,38.4,37.0,30.03,NW,310,11.0,22.0,93,0.00,,,0.08,weatherlink.com 1.10,2013-04-23 19:32:00,
2013-04-23 14:47:00,38.4,37.0,30.04,NW,316,8.0,19.0,93,0.00,,,0.08,weatherlink.com 1.10,2013-04-23 19:47:00,
2013-04-23 15:02:00,38.7,37.0,30.03,NW,313,7.0,15.0,93,0.00,,,0.08,weatherlink.com 1.10,2013-04-23 20:02:00,
2013-04-23 15:17:00,38.6,37.0,30.03,NNW,329,11.0,14.0,93,0.00,,,0.08,weatherlink.com 1.10,2013-04-23 20:17:00,
2013-04-23 15:32:00,38.6,37.0,30.04,NNW,335,11.0,16.0,93,0.00,,,0.08,weatherlink.com 1.10,2013-04-23 20:32:00,
2013-04-23 15:47:00,38.9,37.0,30.03,NW,323,9.0,16.0,93,0.00,,,0.08,weatherlink.com 1.10,2013-04-23 20:47:00,
2013-04-23 16:02:00,38.5,36.0,30.04,NNW,347,8.0,17.0,92,0.00,,,0.08,weatherlink.com 1.10,2013-04-23 21:02:00,
2013-04-23 16:17:00,38.8,37.0,30.04,NNW,332,16.0,16.0,92,0.00,,,0.08,weatherlink.com 1.10,2013-04-23 21:17:00,
2013-04-23 16:32:00,38.2,36.0,30.03,NNW,329,9.0,19.0,92,0.00,,,0.08,weatherlink.com 1.10,2013-04-23 21:32:00,
2013-04-23 16:47:00,38.2,36.0,30.04,NNW,331,7.0,17.0,92,0.00,,,0.08,weatherlink.com 1.10,2013-04-23 21:47:00,
2013-04-23 17:03:00,37.9,36.0,30.04,NW,318,6.0,15.0,92,0.00,,,0.08,weatherlink.com 1.10,2013-04-23 22:03:00,
2013-04-23 17:18:00,37.8,36.0,30.05,NW,308,7.0,16.0,92,0.00,,,0.08,weatherlink.com 1.10,2013-04-23 22:18:00,
2013-04-23 17:33:00,37.6,36.0,30.06,North,355,12.0,16.0,92,0.00,,,0.08,weatherlink.com 1.10,2013-04-23 22:33:00,
2013-04-23 17:48:00,37.3,35.0,30.06,NNW,339,11.0,18.0,91,0.00,,,0.08,weatherlink.com 1.10,2013-04-23 22:48:00,
2013-04-23 18:03:00,37.0,35.0,30.07,NNW,335,7.0,19.0,91,0.01,,,0.09,weatherlink.com 1.10,2013-04-23 23:03:00,
2013-04-23 18:18:00,37.1,35.0,30.07,North,360,11.0,15.0,90,0.01,,,0.09,weatherlink.com 1.10,2013-04-23 23:18:00,
2013-04-23 18:33:00,37.1,35.0,30.08,NNW,329,11.0,14.0,90,0.01,,,0.09,weatherlink.com 1.10,2013-04-23 23:33:00,
2013-04-23 18:48:00,36.8,34.0,30.08,NW,319,12.0,14.0,90,0.01,,,0.09,weatherlink.com 1.10,2013-04-23 23:48:00,
2013-04-23 19:03:00,36.6,34.0,30.09,NNW,336,12.0,14.0,91,0.00,,,0.09,weatherlink.com 1.10,2013-04-24 00:03:00,
2013-04-23 19:18:00,36.5,34.0,30.09,NNW,333,6.0,14.0,90,0.00,,,0.09,weatherlink.com 1.10,2013-04-24 00:18:00,
2013-04-23 19:33:00,36.5,34.0,30.10,NW,320,6.0,15.0,90,0.00,,,0.09,weatherlink.com 1.10,2013-04-24 00:33:00,
2013-04-23 19:48:00,36.4,34.0,30.11,NNW,342,5.0,16.0,90,0.00,,,0.09,weatherlink.com 1.10,2013-04-24 00:48:00,
2013-04-23 20:03:00,36.7,34.0,30.11,North,355,6.0,12.0,89,0.00,,,0.09,weatherlink.com 1.10,2013-04-24 01:03:00,
2013-04-23 20:18:00,36.7,34.0,30.12,NW,321,11.0,16.0,88,0.00,,,0.09,weatherlink.com 1.10,2013-04-24 01:18:00,
2013-04-23 20:33:00,36.6,34.0,30.12,NNW,329,10.0,15.0,89,0.00,,,0.09,weatherlink.com 1.10,2013-04-24 01:33:00,
2013-04-23 20:48:00,36.2,34.0,30.13,NNW,337,7.0,15.0,90,0.00,,,0.09,weatherlink.com 1.10,2013-04-24 01:48:00,
2013-04-23 21:03:00,36.0,34.0,30.14,North,5,10.0,15.0,91,0.00,,,0.09,weatherlink.com 1.10,2013-04-24 02:03:00,
2013-04-23 21:18:00,36.0,34.0,30.15,NNW,344,13.0,19.0,91,0.00,,,0.09,weatherlink.com 1.10,2013-04-24 02:18:00,
2013-04-23 21:48:00,35.8,33.0,30.17,North,355,8.0,18.0,90,0.00,,,0.09,weatherlink.com 1.10,2013-04-24 02:48:00,
2013-04-23 22:03:00,36.0,33.0,30.17,NNW,342,8.0,15.0,89,0.00,,,0.09,weatherlink.com 1.10,2013-04-24 03:03:00,
2013-04-23 22:18:00,36.2,33.0,30.18,North,349,9.0,12.0,89,0.00,,,0.09,weatherlink.com 1.10,2013-04-24 03:18:00,
2013-04-23 22:33:00,36.4,33.0,30.19,NNW,327,11.0,13.0,88,0.00,,,0.09,weatherlink.com 1.10,2013-04-24 03:33:00,
2013-04-23 22:48:00,36.4,33.0,30.19,North,355,8.0,17.0,87,0.00,,,0.09,weatherlink.com 1.10,2013-04-24 03:48:00,
2013-04-23 23:03:00,36.5,33.0,30.20,NNW,329,10.0,16.0,88,0.00,,,0.09,weatherlink.com 1.10,2013-04-24 04:03:00,
2013-04-23 23:18:00,36.6,33.0,30.20,NW,325,6.0,14.0,87,0.00,,,0.09,weatherlink.com 1.10,2013-04-24 04:18:00,
2013-04-23 23:33:00,36.7,33.0,30.20,North,5,10.0,13.0,86,0.00,,,0.09,weatherlink.com 1.10,2013-04-24 04:33:00,
2013-04-23 23:48:00,36.8,33.0,30.21,North,5,6.0,13.0,85,0.00,,,0.09,weatherlink.com 1.10,2013-04-24 04:48:00,